Maran Poseidon — SVAV3 — position and weather

sailwx.info

Track history (hours):
 
Tides and Currents Weather Stations Pressure Air Temp Water Temp Dewpoint Dewpoint Depression Visibility Wind Speed Wind Dir Waves Ship Positions

Maran Poseidon

Last reported at 2016-May-11 17:29 UTC. Time now 2016-May-26 08:52 UTC.
Position N 01°57' E 102°17'.
Warning: this ship's position is 14 days out of date.

Length 274 m; draft 9.5 m.

Type: Tanker. MMSI: 240959000.

Date/timePositionNaut miles runAvg speedWind from/ knotsBaromVisibWave heightAir tempDewpointWater temp
2016-May-11 17:29N 01°57' E 102°17'1010.3
2016-May-11 16:33N 01°53' E 102°26'10 9.9
2016-May-11 15:33N 01°49' E 102°35'10 9.8
2016-May-11 14:33N 01°45' E 102°43'5611.1
2016-May-11 09:33N 01°13' E 103°29'1010.1
2016-May-11 08:33N 01°12' E 103°39'2 1.5
2016-May-11 07:28N 01°12' E 103°41'0 0.0
2016-May-11 06:31N 01°12' E 103°41'0 0.0
2016-May-11 05:28N 01°12' E 103°41'0 0.0
2016-May-11 04:19N 01°12' E 103°41'0 0.1
2016-May-11 03:22N 01°12' E 103°41'0 0.0
2016-May-11 02:13N 01°12' E 103°41'0 0.0
2016-May-11 01:07N 01°12' E 103°41'0 0.0
2016-May-11 00:25N 01°12' E 103°41'0 0.0
2016-May-10 21:22N 01°12' E 103°41'0 0.1
2016-May-10 20:25N 01°12' E 103°41'0 0.1
2016-May-10 19:31N 01°12' E 103°41'0 0.0
2016-May-10 18:31N 01°12' E 103°41'0 0.2
2016-May-10 17:28N 01°12' E 103°40'0 0.1
2016-May-10 16:31N 01°12' E 103°40'1 1.4
2016-May-10 15:33N 01°12' E 103°39'3 2.5
2016-May-10 14:31N 01°14' E 103°41'0 0.0
2016-May-10 13:31N 01°14' E 103°41'0 0.0
2016-May-10 12:25N 01°14' E 103°41'0 0.0
2016-May-10 11:19N 01°14' E 103°41'0 0.0
2016-May-10 10:19N 01°14' E 103°41'0 0.0
2016-May-10 09:28N 01°14' E 103°41'0 0.0
2016-May-10 08:31N 01°14' E 103°41'0 0.0
2016-May-10 07:28N 01°14' E 103°41'0 0.0
2016-May-10 06:28N 01°14' E 103°41'0 0.0
2016-May-10 05:16N 01°14' E 103°41'0 0.0
2016-May-10 04:31N 01°14' E 103°41'0 0.0
2016-May-10 03:13N 01°14' E 103°41'0 0.0
2016-May-10 02:28N 01°14' E 103°41'0 0.0
2016-May-10 01:28N 01°14' E 103°41'0 0.0
2016-May-10 00:19N 01°14' E 103°41'0 0.0
2016-May-09 23:16N 01°14' E 103°41'0 0.0
2016-May-09 22:31N 01°14' E 103°41'0 0.0
2016-May-09 21:31N 01°14' E 103°41'0 0.0
2016-May-09 20:25N 01°14' E 103°41'0 0.0
2016-May-09 19:31N 01°14' E 103°41'0 0.0
2016-May-09 18:31N 01°14' E 103°41'0 0.0
2016-May-09 13:25N 01°14' E 103°41'0 0.0
2016-May-09 12:33N 01°14' E 103°41'0 0.1
2016-May-09 11:33N 01°14' E 103°41'2 2.1
2016-May-09 10:33N 01°12' E 103°41'2 1.8
2016-May-09 09:32N 01°10' E 103°42'0 0.1
2016-May-09 08:32N 01°10' E 103°42'0 0.2
2016-May-09 07:32N 01°10' E 103°42'0 0.1
2016-May-09 06:29N 01°10' E 103°42'0 0.1
2016-May-09 05:32N 01°10' E 103°42'0 0.0
2016-May-09 04:32N 01°10' E 103°42'0 0.0
2016-May-09 03:29N 01°10' E 103°42'0 0.0
2016-May-09 02:32N 01°10' E 103°42'0 0.1
2016-May-09 01:32N 01°10' E 103°43'0 0.0
2016-May-09 00:20N 01°10' E 103°43'0 0.0
2016-May-08 23:32N 01°10' E 103°43'0 0.0
2016-May-08 22:32N 01°10' E 103°43'0 0.0
2016-May-08 21:23N 01°10' E 103°43'0 0.0
2016-May-08 20:29N 01°10' E 103°43'0 0.0
2016-May-08 19:32N 01°10' E 103°43'0 0.0
2016-May-08 18:32N 01°10' E 103°43'2 2.3
2016-May-08 17:33N 01°11' E 103°40'5 5.4
2016-May-08 16:34N 01°11' E 103°35'3 2.8
2016-May-08 15:28N 01°09' E 103°33'2 2.0
2016-May-08 14:28N 01°08' E 103°35'0 0.1
2016-May-08 13:13N 01°08' E 103°35'0 0.1
2016-May-08 12:16N 01°08' E 103°35'0 0.0
2016-May-08 09:10N 01°08' E 103°35'0 0.2
2016-May-08 08:22N 01°08' E 103°35'0 0.0
2016-May-08 02:28N 01°08' E 103°35'0 0.1
2016-May-08 01:31N 01°08' E 103°35'0 0.0
2016-May-08 00:28N 01°08' E 103°35'0 0.0
2016-May-07 22:19N 01°08' E 103°35'0 0.1
2016-May-07 20:25N 01°08' E 103°35'0 0.0
2016-May-07 12:10N 01°08' E 103°35'0 0.0
2016-May-07 09:10N 01°08' E 103°35'0 0.0
2016-May-07 08:28N 01°08' E 103°35'0 0.1
2016-May-07 07:28N 01°08' E 103°35'0 0.1
2016-May-07 05:25N 01°08' E 103°35'0 0.1
2016-May-07 02:13N 01°08' E 103°35'0 0.2
2016-May-07 01:28N 01°08' E 103°35'0 0.0
2016-May-07 00:31N 01°08' E 103°35'0 0.1
2016-May-06 23:31N 01°08' E 103°35'0 0.0
2016-May-06 22:31N 01°08' E 103°35'0 0.0
2016-May-06 12:31N 01°08' E 103°35'0 0.0
2016-May-06 11:31N 01°08' E 103°35'0 0.0
2016-May-06 10:31N 01°08' E 103°35'0 0.1
2016-May-06 09:25N 01°08' E 103°35'0 0.0
2016-May-06 08:31N 01°08' E 103°35'0 0.0
2016-May-06 00:25N 01°08' E 103°35'0 0.0
2016-May-05 23:28N 01°08' E 103°35'0 0.0
2016-May-05 22:22N 01°08' E 103°35'0 0.0
2016-May-05 21:28N 01°08' E 103°35'0 0.1
2016-May-05 20:25N 01°08' E 103°35'0 0.0
2016-May-05 12:33N 01°09' E 103°35'4 4.2
2016-May-05 11:33N 01°11' E 103°39'8 8.4
2016-May-05 10:33N 01°10' E 103°47'1211.7
2016-May-05 09:33N 01°15' E 103°58'1111.2
2016-May-05 08:33N 01°17' E 104°09'  
Track history (hours):
 
Tides and Currents Weather Stations Pressure Air Temp Water Temp Dewpoint Dewpoint Depression Visibility Wind Speed Wind Dir Waves Ship Positions

Maran Poseidon

Last reported at 2016-May-11 17:29 UTC. Time now 2016-May-26 08:52 UTC.
Position N 01°57' E 102°17'.
Warning: this ship's position is 14 days out of date.

Length 274 m; draft 9.5 m.

Type: Tanker. MMSI: 240959000.

Date/timePositionNaut miles runAvg speedWind from/ knotsBaromVisibWave heightAir tempDewpointWater temp
2016-May-11 17:29N 01°57' E 102°17'1010.3
2016-May-11 16:33N 01°53' E 102°26'10 9.9
2016-May-11 15:33N 01°49' E 102°35'10 9.8
2016-May-11 14:33N 01°45' E 102°43'5611.1
2016-May-11 09:33N 01°13' E 103°29'1010.1
2016-May-11 08:33N 01°12' E 103°39'2 1.5
2016-May-11 07:28N 01°12' E 103°41'0 0.0
2016-May-11 06:31N 01°12' E 103°41'0 0.0
2016-May-11 05:28N 01°12' E 103°41'0 0.0
2016-May-11 04:19N 01°12' E 103°41'0 0.1
2016-May-11 03:22N 01°12' E 103°41'0 0.0
2016-May-11 02:13N 01°12' E 103°41'0 0.0
2016-May-11 01:07N 01°12' E 103°41'0 0.0
2016-May-11 00:25N 01°12' E 103°41'0 0.0
2016-May-10 21:22N 01°12' E 103°41'0 0.1
2016-May-10 20:25N 01°12' E 103°41'0 0.1
2016-May-10 19:31N 01°12' E 103°41'0 0.0
2016-May-10 18:31N 01°12' E 103°41'0 0.2
2016-May-10 17:28N 01°12' E 103°40'0 0.1
2016-May-10 16:31N 01°12' E 103°40'1 1.4
2016-May-10 15:33N 01°12' E 103°39'3 2.5
2016-May-10 14:31N 01°14' E 103°41'0 0.0
2016-May-10 13:31N 01°14' E 103°41'0 0.0
2016-May-10 12:25N 01°14' E 103°41'0 0.0
2016-May-10 11:19N 01°14' E 103°41'0 0.0
2016-May-10 10:19N 01°14' E 103°41'0 0.0
2016-May-10 09:28N 01°14' E 103°41'0 0.0
2016-May-10 08:31N 01°14' E 103°41'0 0.0
2016-May-10 07:28N 01°14' E 103°41'0 0.0
2016-May-10 06:28N 01°14' E 103°41'0 0.0
2016-May-10 05:16N 01°14' E 103°41'0 0.0
2016-May-10 04:31N 01°14' E 103°41'0 0.0
2016-May-10 03:13N 01°14' E 103°41'0 0.0
2016-May-10 02:28N 01°14' E 103°41'0 0.0
2016-May-10 01:28N 01°14' E 103°41'0 0.0
2016-May-10 00:19N 01°14' E 103°41'0 0.0
2016-May-09 23:16N 01°14' E 103°41'0 0.0
2016-May-09 22:31N 01°14' E 103°41'0 0.0
2016-May-09 21:31N 01°14' E 103°41'0 0.0
2016-May-09 20:25N 01°14' E 103°41'0 0.0
2016-May-09 19:31N 01°14' E 103°41'0 0.0
2016-May-09 18:31N 01°14' E 103°41'0 0.0
2016-May-09 13:25N 01°14' E 103°41'0 0.0
2016-May-09 12:33N 01°14' E 103°41'0 0.1
2016-May-09 11:33N 01°14' E 103°41'2 2.1
2016-May-09 10:33N 01°12' E 103°41'2 1.8
2016-May-09 09:32N 01°10' E 103°42'0 0.1
2016-May-09 08:32N 01°10' E 103°42'0 0.2
2016-May-09 07:32N 01°10' E 103°42'0 0.1
2016-May-09 06:29N 01°10' E 103°42'0 0.1
2016-May-09 05:32N 01°10' E 103°42'0 0.0
2016-May-09 04:32N 01°10' E 103°42'0 0.0
2016-May-09 03:29N 01°10' E 103°42'0 0.0
2016-May-09 02:32N 01°10' E 103°42'0 0.1
2016-May-09 01:32N 01°10' E 103°43'0 0.0
2016-May-09 00:20N 01°10' E 103°43'0 0.0
2016-May-08 23:32N 01°10' E 103°43'0 0.0
2016-May-08 22:32N 01°10' E 103°43'0 0.0
2016-May-08 21:23N 01°10' E 103°43'0 0.0
2016-May-08 20:29N 01°10' E 103°43'0 0.0
2016-May-08 19:32N 01°10' E 103°43'0 0.0
2016-May-08 18:32N 01°10' E 103°43'2 2.3
2016-May-08 17:33N 01°11' E 103°40'5 5.4
2016-May-08 16:34N 01°11' E 103°35'3 2.8
2016-May-08 15:28N 01°09' E 103°33'2 2.0
2016-May-08 14:28N 01°08' E 103°35'0 0.1
2016-May-08 13:13N 01°08' E 103°35'0 0.1
2016-May-08 12:16N 01°08' E 103°35'0 0.0
2016-May-08 09:10N 01°08' E 103°35'0 0.2
2016-May-08 08:22N 01°08' E 103°35'0 0.0
2016-May-08 02:28N 01°08' E 103°35'0 0.1
2016-May-08 01:31N 01°08' E 103°35'0 0.0
2016-May-08 00:28N 01°08' E 103°35'0 0.0
2016-May-07 22:19N 01°08' E 103°35'0 0.1
2016-May-07 20:25N 01°08' E 103°35'0 0.0
2016-May-07 12:10N 01°08' E 103°35'0 0.0
2016-May-07 09:10N 01°08' E 103°35'0 0.0
2016-May-07 08:28N 01°08' E 103°35'0 0.1
2016-May-07 07:28N 01°08' E 103°35'0 0.1
2016-May-07 05:25N 01°08' E 103°35'0 0.1
2016-May-07 02:13N 01°08' E 103°35'0 0.2
2016-May-07 01:28N 01°08' E 103°35'0 0.0
2016-May-07 00:31N 01°08' E 103°35'0 0.1
2016-May-06 23:31N 01°08' E 103°35'0 0.0
2016-May-06 22:31N 01°08' E 103°35'0 0.0
2016-May-06 12:31N 01°08' E 103°35'0 0.0
2016-May-06 11:31N 01°08' E 103°35'0 0.0
2016-May-06 10:31N 01°08' E 103°35'0 0.1
2016-May-06 09:25N 01°08' E 103°35'0 0.0
2016-May-06 08:31N 01°08' E 103°35'0 0.0
2016-May-06 00:25N 01°08' E 103°35'0 0.0
2016-May-05 23:28N 01°08' E 103°35'0 0.0
2016-May-05 22:22N 01°08' E 103°35'0 0.0
2016-May-05 21:28N 01°08' E 103°35'0 0.1
2016-May-05 20:25N 01°08' E 103°35'0 0.0
2016-May-05 12:33N 01°09' E 103°35'4 4.2
2016-May-05 11:33N 01°11' E 103°39'8 8.4
2016-May-05 10:33N 01°10' E 103°47'1211.7
2016-May-05 09:33N 01°15' E 103°58'1111.2
2016-May-05 08:33N 01°17' E 104°09'  

Dump ship's entire track history